Time;durP1;ratioP1;P1;durP2;ratioP2;P2;SDS_P1;SDS_P2;PMS_P1;PMS_P2;Temp;Humidity;BMP_temperature;BMP_pressure;BME280_temperature;BME280_humidity;BME280_pressure;Samples;Min_cycle;Max_cycle;Signal;HPM_P1;HPM_P2
2023/05/05 00:01:16;;;;;;;11.05;3.50;;;11.50;99.90;;;;;;4235424;28;20048;-85
2023/05/05 00:03:19;;;;;;;10.75;4.30;;;11.50;99.90;;;;;;4233875;28;20049;-84
2023/05/05 00:05:20;;;;;;;6.70;3.30;;;11.50;99.90;;;;;;4235462;28;20086;-84
2023/05/05 00:07:21;;;;;;;9.52;4.05;;;11.50;99.90;;;;;;4248306;27;20043;-84
2023/05/05 00:09:22;;;;;;;8.95;3.58;;;11.50;99.90;;;;;;4252137;27;20043;-84
2023/05/05 00:11:24;;;;;;;6.07;3.22;;;11.50;99.90;;;;;;4252794;27;20015;-84
2023/05/05 00:13:26;;;;;;;8.52;3.83;;;11.40;99.90;;;;;;4233430;28;20123;-84
2023/05/05 00:15:28;;;;;;;7.50;3.42;;;11.40;99.90;;;;;;4233925;28;20048;-84
2023/05/05 00:17:28;;;;;;;7.15;3.50;;;11.40;99.90;;;;;;4252029;27;20040;-84
2023/05/05 00:19:29;;;;;;;11.45;3.63;;;11.40;99.90;;;;;;4252047;27;20043;-85
2023/05/05 00:21:30;;;;;;;9.50;3.47;;;11.40;99.90;;;;;;4233908;28;20051;-84
2023/05/05 00:23:31;;;;;;;9.05;3.78;;;11.30;99.90;;;;;;4252170;27;20058;-85
2023/05/05 00:25:31;;;;;;;6.90;3.20;;;11.30;99.90;;;;;;4242364;27;20050;-85
2023/05/05 00:27:32;;;;;;;7.53;3.78;;;11.30;99.90;;;;;;4249534;27;20507;-85
2023/05/05 00:29:33;;;;;;;10.68;3.70;;;11.30;99.90;;;;;;4234338;28;20051;-85
2023/05/05 00:31:35;;;;;;;6.57;3.38;;;11.30;99.90;;;;;;4232640;28;20040;-85
2023/05/05 00:33:35;;;;;;;9.05;4.40;;;11.20;99.90;;;;;;4252075;27;20074;-85
2023/05/05 00:35:37;;;;;;;24.75;4.03;;;11.20;99.90;;;;;;4233257;28;20047;-84
2023/05/05 00:37:39;;;;;;;9.32;3.38;;;11.20;99.90;;;;;;4250408;27;20122;-84
2023/05/05 00:39:39;;;;;;;7.38;3.40;;;11.20;99.90;;;;;;4250523;27;20510;-85
2023/05/05 00:41:41;;;;;;;10.18;4.28;;;11.20;99.90;;;;;;4233386;28;20052;-85
2023/05/05 00:43:42;;;;;;;15.30;4.38;;;11.20;99.90;;;;;;4224886;28;20146;-84
2023/05/05 00:45:46;;;;;;;7.15;2.53;;;11.20;99.90;;;;;;4233845;28;20480;-85
2023/05/05 00:47:50;;;;;;;17.35;4.50;;;11.10;99.90;;;;;;4235647;28;20047;-84
2023/05/05 00:49:51;;;;;;;10.27;3.90;;;11.10;99.90;;;;;;4234166;28;20051;-84
2023/05/05 00:51:52;;;;;;;6.35;2.67;;;11.10;99.90;;;;;;4234693;28;20510;-85
2023/05/05 00:53:53;;;;;;;9.27;4.25;;;11.10;99.90;;;;;;4216337;28;20403;-84
2023/05/05 00:55:54;;;;;;;8.48;3.30;;;11.10;99.90;;;;;;4216259;28;20040;-84
2023/05/05 00:57:57;;;;;;;9.98;3.60;;;11.10;99.90;;;;;;4216062;28;20132;-85
2023/05/05 00:59:58;;;;;;;6.15;3.90;;;11.00;99.90;;;;;;4220316;28;20043;-84
2023/05/05 01:01:59;;;;;;;10.52;3.92;;;11.10;99.90;;;;;;4234292;28;20039;-84
2023/05/05 01:04:00;;;;;;;10.85;4.80;;;11.10;99.90;;;;;;4215951;28;20083;-85
2023/05/05 01:06:29;;;;;;;6.82;2.97;;;11.10;99.90;;;;;;4214290;28;20047;-84
2023/05/05 01:08:51;;;;;;;7.70;4.00;;;11.00;99.90;;;;;;4233784;28;20056;-85
2023/05/05 01:10:56;;;;;;;9.38;3.30;;;11.00;99.90;;;;;;4233986;28;20500;-85
2023/05/05 01:13:14;;;;;;;10.75;3.60;;;11.00;99.90;;;;;;4214875;28;20139;-85
2023/05/05 01:15:25;;;;;;;7.38;3.70;;;10.90;99.90;;;;;;4216722;28;20138;-85
2023/05/05 01:17:38;;;;;;;9.68;3.47;;;10.90;99.90;;;;;;4229414;28;20054;-85
2023/05/05 01:20:27;;;;;;;9.45;3.88;;;10.90;99.90;;;;;;4251215;27;20437;-85
2023/05/05 01:22:38;;;;;;;8.32;4.18;;;10.90;99.90;;;;;;4230546;27;20135;-85
2023/05/05 01:24:58;;;;;;;6.60;3.72;;;10.90;99.90;;;;;;4232493;28;20055;-85
2023/05/05 01:27:04;;;;;;;7.70;3.22;;;10.80;99.90;;;;;;4231745;28;20056;-85
2023/05/05 01:29:26;;;;;;;9.88;3.50;;;10.90;99.90;;;;;;4249571;27;20051;-85
2023/05/05 01:31:32;;;;;;;6.65;3.20;;;10.80;99.90;;;;;;4249520;27;20075;-85
2023/05/05 01:33:41;;;;;;;13.75;5.10;;;10.80;99.90;;;;;;4231295;28;20051;-85
2023/05/05 01:35:48;;;;;;;9.48;3.85;;;10.70;99.90;;;;;;4231094;28;20043;-84
2023/05/05 01:37:57;;;;;;;10.70;4.03;;;10.80;99.90;;;;;;4214479;28;20052;-85
2023/05/05 01:40:04;;;;;;;6.97;3.33;;;10.70;99.90;;;;;;4231168;28;20043;-86
2023/05/05 01:42:12;;;;;;;9.45;3.83;;;10.70;99.90;;;;;;4239544;27;20032;-85
2023/05/05 01:44:14;;;;;;;6.85;3.10;;;10.70;99.90;;;;;;4231929;28;20051;-85
2023/05/05 01:46:17;;;;;;;6.13;3.53;;;10.70;99.90;;;;;;4230549;28;20306;-85
2023/05/05 01:48:19;;;;;;;8.98;3.47;;;10.70;99.90;;;;;;4223659;28;20081;-84
2023/05/05 01:50:21;;;;;;;11.38;3.25;;;10.70;99.90;;;;;;4231997;28;20078;-85
2023/05/05 01:52:23;;;;;;;13.65;3.42;;;10.70;99.90;;;;;;4232657;28;20114;-85
2023/05/05 01:54:25;;;;;;;11.73;4.20;;;10.60;99.90;;;;;;4247462;27;20165;-84
2023/05/05 01:56:28;;;;;;;8.90;3.38;;;10.60;99.90;;;;;;4230646;28;20063;-85
2023/05/05 01:58:31;;;;;;;11.15;3.63;;;10.60;99.90;;;;;;4214631;28;20109;-85
2023/05/05 02:00:33;;;;;;;8.45;3.03;;;10.60;99.90;;;;;;4231265;28;20449;-85
2023/05/05 02:02:36;;;;;;;7.28;3.67;;;10.60;99.90;;;;;;4231804;28;20134;-86
2023/05/05 02:04:43;;;;;;;8.60;3.85;;;10.60;99.90;;;;;;4231618;28;20074;-85
2023/05/05 02:06:46;;;;;;;6.18;3.65;;;10.60;99.90;;;;;;4231024;28;20099;-85
2023/05/05 02:08:49;;;;;;;8.73;3.08;;;10.60;99.90;;;;;;4231310;28;20516;-85
2023/05/05 02:10:50;;;;;;;7.95;3.92;;;10.60;99.90;;;;;;4214218;28;20494;-85
2023/05/05 02:12:52;;;;;;;9.68;3.60;;;10.60;99.90;;;;;;4211274;28;20040;-85
2023/05/05 02:14:58;;;;;;;4.38;3.13;;;10.50;99.90;;;;;;4225386;28;20161;-84
2023/05/05 02:17:00;;;;;;;9.20;3.30;;;10.50;99.90;;;;;;4266406;27;20047;-85
2023/05/05 02:19:04;;;;;;;7.88;3.83;;;10.50;99.90;;;;;;4266404;27;20044;-85
2023/05/05 02:21:06;;;;;;;6.55;3.20;;;10.50;99.90;;;;;;4247643;27;20113;-85
2023/05/05 02:23:07;;;;;;;6.72;3.90;;;10.50;99.90;;;;;;4247790;27;20059;-85
2023/05/05 02:25:08;;;;;;;6.68;3.25;;;10.50;99.90;;;;;;4247552;27;20130;-85
2023/05/05 02:27:10;;;;;;;6.75;2.72;;;10.50;99.90;;;;;;4267003;27;20137;-85
2023/05/05 02:29:17;;;;;;;13.23;4.20;;;10.50;99.90;;;;;;4247109;27;20066;-85
2023/05/05 02:31:22;;;;;;;7.05;3.22;;;10.50;99.90;;;;;;4247923;27;20078;-86
2023/05/05 02:33:25;;;;;;;7.53;3.17;;;10.50;99.90;;;;;;4240173;27;20498;-85
2023/05/05 02:35:34;;;;;;;14.18;3.40;;;10.50;99.90;;;;;;4231360;28;20048;-85
2023/05/05 02:37:37;;;;;;;9.30;3.72;;;10.50;99.90;;;;;;4232029;28;20049;-84
2023/05/05 02:39:57;;;;;;;7.75;3.28;;;10.50;99.90;;;;;;4249075;27;20068;-84
2023/05/05 02:42:01;;;;;;;7.82;3.45;;;10.50;99.90;;;;;;4213589;28;20075;-85
2023/05/05 02:44:04;;;;;;;9.60;3.80;;;10.50;99.90;;;;;;4225579;28;20051;-85
2023/05/05 02:46:05;;;;;;;8.77;3.97;;;10.40;99.90;;;;;;4247453;27;20043;-85
2023/05/05 02:48:06;;;;;;;12.98;4.65;;;10.40;99.90;;;;;;4247280;27;20039;-85
2023/05/05 02:50:07;;;;;;;6.70;3.58;;;10.40;99.90;;;;;;4240450;27;20039;-85
2023/05/05 02:52:08;;;;;;;9.43;2.97;;;10.40;99.90;;;;;;4231422;28;20534;-85
2023/05/05 02:54:09;;;;;;;6.22;3.47;;;10.40;99.90;;;;;;4213729;28;20048;-84
2023/05/05 02:56:23;;;;;;;7.85;3.75;;;10.40;99.90;;;;;;4213117;28;20052;-85
2023/05/05 02:58:29;;;;;;;8.55;3.65;;;10.40;99.90;;;;;;4230700;28;20054;-85
2023/05/05 03:00:45;;;;;;;7.53;3.63;;;10.40;99.90;;;;;;4231652;27;20039;-85
2023/05/05 03:02:58;;;;;;;8.77;3.38;;;10.40;99.90;;;;;;4212894;28;20062;-85
2023/05/05 03:05:08;;;;;;;12.13;3.97;;;10.40;99.90;;;;;;4216750;28;20095;-85
2023/05/05 03:07:14;;;;;;;9.52;3.75;;;10.30;99.90;;;;;;4230225;28;20470;-85
2023/05/05 03:09:38;;;;;;;9.55;3.78;;;10.40;99.90;;;;;;4229993;28;20054;-85
2023/05/05 03:12:00;;;;;;;10.52;4.85;;;10.40;99.90;;;;;;4225483;28;20481;-85
2023/05/05 03:14:20;;;;;;;10.43;3.72;;;10.40;99.90;;;;;;4228825;28;20140;-84
2023/05/05 03:16:23;;;;;;;11.02;3.53;;;10.30;99.90;;;;;;4229283;28;20077;-85
2023/05/05 03:18:28;;;;;;;5.65;3.30;;;10.30;99.90;;;;;;4230191;28;20058;-84
2023/05/05 03:20:29;;;;;;;12.77;3.47;;;10.30;99.90;;;;;;4229601;28;20055;-85
2023/05/05 03:22:34;;;;;;;9.70;3.92;;;10.30;99.90;;;;;;4230071;28;20555;-85
2023/05/05 03:24:35;;;;;;;12.27;3.55;;;10.20;99.90;;;;;;4212465;28;20070;-84
2023/05/05 03:26:35;;;;;;;12.00;4.60;;;10.50;99.90;;;;;;4248002;28;20047;-84
2023/05/05 03:28:37;;;;;;;7.32;3.55;;;10.20;99.90;;;;;;4229626;28;20051;-84
2023/05/05 03:30:38;;;;;;;11.20;3.55;;;10.20;99.90;;;;;;4229450;28;20127;-84
2023/05/05 03:32:39;;;;;;;5.55;3.30;;;10.20;99.90;;;;;;4229648;28;20047;-84
2023/05/05 03:34:39;;;;;;;10.20;4.75;;;10.20;99.90;;;;;;4229516;28;20052;-85
2023/05/05 03:36:40;;;;;;;16.52;5.32;;;10.20;99.90;;;;;;4230443;28;20484;-84
2023/05/05 03:38:41;;;;;;;11.70;3.50;;;10.20;99.90;;;;;;4248347;28;20043;-84
2023/05/05 03:40:41;;;;;;;6.97;3.45;;;10.10;99.90;;;;;;4248468;28;20499;-84
2023/05/05 03:42:42;;;;;;;7.40;3.50;;;10.20;99.90;;;;;;4213432;28;20396;-84
2023/05/05 03:44:43;;;;;;;5.88;2.97;;;10.20;99.90;;;;;;4248491;28;20515;-84
2023/05/05 03:46:44;;;;;;;11.88;3.88;;;10.40;99.90;;;;;;4247764;28;20041;-84
2023/05/05 03:48:45;;;;;;;6.97;3.25;;;10.20;99.90;;;;;;4230701;28;20499;-85
2023/05/05 03:50:45;;;;;;;10.70;3.53;;;10.20;99.90;;;;;;4247783;28;20119;-84
2023/05/05 03:52:46;;;;;;;5.25;3.20;;;10.20;99.90;;;;;;4248243;28;20061;-84
2023/05/05 03:54:47;;;;;;;10.27;3.53;;;10.20;99.90;;;;;;4231167;28;20047;-85
2023/05/05 03:56:47;;;;;;;9.27;3.92;;;10.20;99.90;;;;;;4230244;28;20113;-84
2023/05/05 03:58:48;;;;;;;5.93;3.40;;;10.20;99.90;;;;;;4229525;28;20047;-84
2023/05/05 04:00:50;;;;;;;7.45;3.35;;;10.30;99.90;;;;;;4231184;28;20047;-84
2023/05/05 04:02:52;;;;;;;6.28;3.67;;;10.30;99.90;;;;;;4248379;28;20499;-84
2023/05/05 04:04:52;;;;;;;7.38;3.65;;;10.30;99.90;;;;;;4214043;28;20048;-84
2023/05/05 04:06:53;;;;;;;8.63;3.70;;;10.30;99.90;;;;;;4247998;28;20118;-84
2023/05/05 04:08:54;;;;;;;8.52;3.30;;;10.30;99.90;;;;;;4249091;28;20453;-84
2023/05/05 04:10:56;;;;;;;7.32;3.45;;;10.40;99.90;;;;;;4248920;28;20043;-83
2023/05/05 04:12:56;;;;;;;5.95;2.78;;;10.40;99.90;;;;;;4250495;27;20088;-85
2023/05/05 04:14:57;;;;;;;13.82;3.85;;;10.40;99.90;;;;;;4252724;27;20043;-84
2023/05/05 04:16:59;;;;;;;7.85;3.22;;;10.40;99.90;;;;;;4251642;27;20043;-84
2023/05/05 04:19:01;;;;;;;8.18;3.50;;;10.40;99.90;;;;;;4252738;27;20526;-84
2023/05/05 04:21:01;;;;;;;7.07;3.20;;;10.70;99.90;;;;;;4252200;27;20046;-84
2023/05/05 04:23:02;;;;;;;5.43;3.03;;;10.50;99.90;;;;;;4222646;28;20044;-84
2023/05/05 04:25:03;;;;;;;5.70;3.28;;;10.60;99.90;;;;;;4250854;28;20048;-84
2023/05/05 04:27:04;;;;;;;5.85;2.83;;;10.60;99.90;;;;;;4268104;27;20041;-83
2023/05/05 04:29:05;;;;;;;7.57;3.50;;;10.60;99.90;;;;;;4267343;27;20048;-84
2023/05/05 04:31:06;;;;;;;7.35;3.47;;;10.60;99.90;;;;;;4232958;28;20078;-83
2023/05/05 04:33:07;;;;;;;11.65;3.90;;;10.70;99.90;;;;;;4258171;27;20043;-84
2023/05/05 04:35:08;;;;;;;4.93;2.92;;;10.70;99.90;;;;;;4223683;28;20048;-84
2023/05/05 04:37:10;;;;;;;8.18;3.00;;;10.70;99.90;;;;;;4237131;28;20047;-84
2023/05/05 04:39:12;;;;;;;7.10;3.45;;;10.70;99.90;;;;;;4235472;28;20403;-84
2023/05/05 04:41:13;;;;;;;5.55;3.50;;;10.70;99.90;;;;;;4218206;28;20048;-85
2023/05/05 04:43:13;;;;;;;10.05;4.20;;;10.70;99.90;;;;;;4236655;28;20039;-84
2023/05/05 04:45:15;;;;;;;8.48;3.60;;;10.70;99.90;;;;;;4234516;28;20054;-84
2023/05/05 04:47:16;;;;;;;8.02;3.75;;;10.70;99.90;;;;;;4234662;28;20050;-83
2023/05/05 04:49:17;;;;;;;12.35;4.30;;;10.70;99.90;;;;;;4233746;28;20055;-82
2023/05/05 04:51:18;;;;;;;9.35;3.90;;;10.60;99.90;;;;;;4240775;27;20050;-82
2023/05/05 04:53:18;;;;;;;7.95;3.88;;;10.60;99.90;;;;;;4241498;27;20122;-81
2023/05/05 04:55:19;;;;;;;9.88;4.25;;;10.60;99.90;;;;;;4234200;28;20051;-82
2023/05/05 04:57:20;;;;;;;8.98;4.45;;;10.50;99.90;;;;;;4234190;28;20043;-82
2023/05/05 04:59:21;;;;;;;11.30;4.43;;;10.50;99.90;;;;;;4233679;28;20048;-82
2023/05/05 05:01:21;;;;;;;12.18;4.13;;;10.70;99.90;;;;;;4221087;28;20048;-83
2023/05/05 05:03:22;;;;;;;8.68;3.72;;;10.40;99.90;;;;;;4198765;28;20428;-83
2023/05/05 05:05:23;;;;;;;17.65;4.63;;;10.40;99.90;;;;;;4219530;28;20062;-83
2023/05/05 05:07:24;;;;;;;9.70;3.40;;;10.40;99.90;;;;;;4220946;28;20118;-83
2023/05/05 05:09:25;;;;;;;7.30;3.45;;;10.30;99.90;;;;;;4251510;27;20099;-83
2023/05/05 05:11:27;;;;;;;11.68;3.83;;;10.30;99.90;;;;;;4250898;27;20511;-83
2023/05/05 05:13:28;;;;;;;8.60;4.15;;;10.60;99.90;;;;;;4251384;27;20479;-83
2023/05/05 05:15:28;;;;;;;9.55;4.22;;;10.20;99.90;;;;;;4251090;27;20078;-83
2023/05/05 05:17:29;;;;;;;9.02;4.25;;;10.20;99.90;;;;;;4249303;27;20043;-82
2023/05/05 05:19:30;;;;;;;12.10;3.97;;;10.20;99.90;;;;;;4219436;28;20048;-82
2023/05/05 05:21:30;;;;;;;11.18;4.00;;;10.10;99.90;;;;;;4214804;28;20105;-82
2023/05/05 05:23:31;;;;;;;7.28;3.55;;;10.10;99.90;;;;;;4238347;27;20150;-82
2023/05/05 05:25:33;;;;;;;8.30;3.47;;;10.10;99.90;;;;;;4231539;28;20123;-82
2023/05/05 05:27:35;;;;;;;11.40;3.85;;;10.10;99.90;;;;;;4232518;28;20437;-82
2023/05/05 05:29:36;;;;;;;7.07;4.55;;;10.00;99.90;;;;;;4232478;28;20543;-82
2023/05/05 05:31:38;;;;;;;6.10;3.00;;;10.10;99.90;;;;;;4231755;28;20096;-82
2023/05/05 05:33:39;;;;;;;14.68;4.45;;;10.00;99.90;;;;;;4232196;28;20131;-83
2023/05/05 05:35:40;;;;;;;5.95;3.88;;;10.00;99.90;;;;;;4227985;28;20501;-82
2023/05/05 05:37:41;;;;;;;6.35;3.90;;;10.00;99.90;;;;;;4214686;28;20147;-82
2023/05/05 05:39:42;;;;;;;7.78;4.53;;;10.00;99.90;;;;;;4213968;28;20052;-82
2023/05/05 05:41:42;;;;;;;8.15;3.92;;;10.00;99.90;;;;;;4213582;28;20610;-81
2023/05/05 05:43:43;;;;;;;11.65;4.75;;;10.00;99.90;;;;;;4214242;28;20510;-81
2023/05/05 05:45:45;;;;;;;8.05;3.63;;;10.00;99.90;;;;;;4232366;28;20126;-82
2023/05/05 05:47:45;;;;;;;9.88;3.88;;;10.00;99.90;;;;;;4214901;28;20051;-81
2023/05/05 05:49:46;;;;;;;10.43;4.00;;;10.00;99.90;;;;;;4214206;28;20043;-82
2023/05/05 05:51:47;;;;;;;7.97;3.60;;;10.20;99.90;;;;;;4220682;28;20542;-82
2023/05/05 05:53:47;;;;;;;7.05;3.90;;;10.10;99.90;;;;;;4249189;27;20479;-82
2023/05/05 05:55:48;;;;;;;6.68;3.42;;;10.00;99.90;;;;;;4250315;27;20039;-82
2023/05/05 05:57:49;;;;;;;10.02;4.38;;;10.10;99.90;;;;;;4249282;27;20043;-82
2023/05/05 05:59:49;;;;;;;10.73;4.30;;;10.20;99.90;;;;;;4232360;28;20051;-82
2023/05/05 06:01:51;;;;;;;6.50;3.88;;;10.30;99.90;;;;;;4231325;28;20048;-82
2023/05/05 06:03:52;;;;;;;7.40;4.03;;;10.40;99.90;;;;;;4248629;27;20043;-82
2023/05/05 06:05:52;;;;;;;12.63;4.75;;;10.60;99.90;;;;;;4231513;28;20105;-82
2023/05/05 06:07:53;;;;;;;10.00;3.83;;;10.70;99.90;;;;;;4248903;27;20075;-82
2023/05/05 06:09:54;;;;;;;10.30;3.70;;;10.80;99.90;;;;;;4249939;27;20128;-81
2023/05/05 06:11:55;;;;;;;7.25;3.83;;;10.80;99.90;;;;;;4248355;27;20047;-81
2023/05/05 06:13:55;;;;;;;9.48;4.47;;;10.90;99.90;;;;;;4215338;28;20051;-81
2023/05/05 06:15:57;;;;;;;7.53;4.13;;;10.80;99.90;;;;;;4214053;28;20090;-82
2023/05/05 06:17:57;;;;;;;9.13;4.00;;;10.80;99.90;;;;;;4231818;28;20372;-82
2023/05/05 06:19:58;;;;;;;9.90;4.28;;;10.80;99.90;;;;;;4214274;28;20180;-82
2023/05/05 06:22:00;;;;;;;10.30;4.20;;;10.80;99.90;;;;;;4214140;28;20052;-82
2023/05/05 06:24:01;;;;;;;14.23;4.30;;;10.80;99.90;;;;;;4215449;28;20091;-82
2023/05/05 06:26:03;;;;;;;8.23;3.95;;;10.70;99.90;;;;;;4232571;28;20047;-82
2023/05/05 06:28:04;;;;;;;8.13;4.30;;;10.70;99.90;;;;;;4215271;28;20044;-82
2023/05/05 06:30:06;;;;;;;8.60;3.70;;;10.70;99.90;;;;;;4248522;27;20551;-82
2023/05/05 06:32:07;;;;;;;12.32;4.13;;;10.80;99.90;;;;;;4249647;27;20092;-82
2023/05/05 06:34:08;;;;;;;7.65;4.10;;;10.80;99.90;;;;;;4214860;28;20484;-81
2023/05/05 06:36:09;;;;;;;8.68;3.88;;;10.90;99.90;;;;;;4231299;28;20059;-81
2023/05/05 06:38:11;;;;;;;6.53;3.85;;;10.90;99.90;;;;;;4214657;28;20099;-82
2023/05/05 06:40:12;;;;;;;8.20;4.50;;;10.90;99.90;;;;;;4231512;28;20043;-82
2023/05/05 06:42:13;;;;;;;8.23;4.50;;;11.10;99.90;;;;;;4230633;28;20111;-81
2023/05/05 06:44:14;;;;;;;8.82;4.68;;;11.10;99.90;;;;;;4212192;28;20440;-82
2023/05/05 06:46:14;;;;;;;9.20;4.35;;;11.30;99.90;;;;;;4229580;28;20075;-82
2023/05/05 06:48:15;;;;;;;9.50;4.35;;;11.50;99.90;;;;;;4230648;28;20410;-82
2023/05/05 06:50:16;;;;;;;10.00;3.83;;;11.60;99.90;;;;;;4230322;28;20083;-82
2023/05/05 06:52:16;;;;;;;10.35;4.88;;;11.70;99.90;;;;;;4231029;28;20047;-81
2023/05/05 06:54:17;;;;;;;8.00;4.00;;;11.80;99.90;;;;;;4248971;27;20045;-82
2023/05/05 06:56:19;;;;;;;11.13;3.90;;;11.80;99.90;;;;;;4249430;27;20062;-81
2023/05/05 06:58:20;;;;;;;9.40;3.83;;;11.70;99.90;;;;;;4247842;27;20132;-82
2023/05/05 07:00:21;;;;;;;7.63;3.78;;;11.70;99.90;;;;;;4229626;28;20059;-82
2023/05/05 07:02:23;;;;;;;9.00;3.95;;;11.60;99.90;;;;;;4226847;28;20039;-81
2023/05/05 07:04:25;;;;;;;6.15;3.80;;;11.60;99.90;;;;;;4229468;28;20491;-81
2023/05/05 07:06:26;;;;;;;6.82;3.55;;;11.70;99.90;;;;;;4229698;28;20048;-81
2023/05/05 07:08:28;;;;;;;6.38;4.13;;;11.80;99.90;;;;;;4247446;28;20482;-81
2023/05/05 07:10:30;;;;;;;7.50;3.95;;;11.90;99.90;;;;;;4247221;28;20065;-82
2023/05/05 07:12:30;;;;;;;14.02;4.85;;;11.90;99.90;;;;;;4246244;28;20043;-82
2023/05/05 07:14:31;;;;;;;6.97;3.72;;;12.00;99.90;;;;;;4247712;28;20126;-81
2023/05/05 07:16:33;;;;;;;8.77;4.30;;;12.10;99.90;;;;;;4247499;27;20092;-81
2023/05/05 07:18:34;;;;;;;8.82;4.38;;;12.20;99.90;;;;;;4241556;28;20495;-81
2023/05/05 07:20:34;;;;;;;9.43;4.10;;;12.30;99.90;;;;;;4212349;28;20052;-83
2023/05/05 07:22:35;;;;;;;8.15;4.10;;;12.40;99.90;;;;;;4211756;28;20512;-82
2023/05/05 07:24:36;;;;;;;12.00;5.57;;;12.60;99.90;;;;;;4212550;28;20131;-82
2023/05/05 07:26:37;;;;;;;7.53;4.43;;;12.60;99.90;;;;;;4195939;28;20087;-82
2023/05/05 07:28:38;;;;;;;9.27;4.03;;;12.60;99.90;;;;;;4230968;28;20048;-82
2023/05/05 07:30:39;;;;;;;9.27;3.95;;;12.80;99.90;;;;;;4230677;28;20048;-82
2023/05/05 07:32:40;;;;;;;7.78;4.10;;;12.90;99.90;;;;;;4212065;28;20123;-82
2023/05/05 07:34:41;;;;;;;9.25;4.88;;;;;;;;;;4212682;28;20055;-82
2023/05/05 07:36:42;;;;;;;7.07;4.10;;;;;;;;;;4218642;28;20093;-83
2023/05/05 07:38:44;;;;;;;10.32;4.47;;;;;;;;;;4230719;28;20051;-84
2023/05/05 07:40:45;;;;;;;11.63;4.65;;;;;;;;;;4247620;28;20118;-84
2023/05/05 07:42:47;;;;;;;20.02;5.13;;;13.10;99.90;;;;;;4231142;28;20074;-85
2023/05/05 07:44:49;;;;;;;10.90;4.80;;;13.60;99.90;;;;;;4248228;28;20475;-85
2023/05/05 07:46:50;;;;;;;8.77;4.40;;;13.70;99.90;;;;;;4230248;28;20086;-85
2023/05/05 07:48:51;;;;;;;7.43;4.40;;;13.80;99.90;;;;;;4252215;27;20038;-85
2023/05/05 07:50:53;;;;;;;9.57;4.85;;;13.80;99.90;;;;;;4217020;28;20055;-84
2023/05/05 07:52:54;;;;;;;14.57;5.18;;;13.80;99.90;;;;;;4217041;28;20054;-85
2023/05/05 07:54:56;;;;;;;9.43;4.57;;;14.00;99.90;;;;;;4234309;28;20052;-86
2023/05/05 07:56:56;;;;;;;7.22;4.32;;;14.20;99.90;;;;;;4216877;28;20036;-85
2023/05/05 07:58:57;;;;;;;8.88;4.53;;;14.40;99.90;;;;;;4233709;28;20086;-85
2023/05/05 08:00:59;;;;;;;10.20;5.05;;;14.40;99.90;;;;;;4233624;28;20155;-85
2023/05/05 08:03:00;;;;;;;9.73;5.35;;;14.50;99.90;;;;;;4233498;28;20081;-84
2023/05/05 08:05:00;;;;;;;9.93;4.90;;;14.60;99.90;;;;;;4216392;28;20052;-85
2023/05/05 08:07:01;;;;;;;9.20;4.40;;;14.80;99.90;;;;;;4233478;28;20127;-85
2023/05/05 08:09:02;;;;;;;8.93;4.80;;;15.00;99.90;;;;;;4232843;28;20047;-84
2023/05/05 08:11:03;;;;;;;8.13;4.65;;;15.10;99.90;;;;;;4251431;27;20047;-85
2023/05/05 08:13:05;;;;;;;6.43;4.50;;;15.30;99.90;;;;;;4251188;27;20126;-85
2023/05/05 08:15:06;;;;;;;8.95;4.32;;;15.30;99.90;;;;;;4251374;27;20487;-85
2023/05/05 08:17:07;;;;;;;10.27;5.10;;;15.50;99.90;;;;;;4232179;28;20051;-86
2023/05/05 08:19:09;;;;;;;12.95;4.90;;;15.70;99.90;;;;;;4252123;27;20505;-85
2023/05/05 08:21:10;;;;;;;8.75;4.90;;;15.90;99.90;;;;;;4232981;28;20057;-84
2023/05/05 08:23:13;;;;;;;6.95;4.15;;;16.10;99.90;;;;;;4250749;27;20082;-85
2023/05/05 08:25:14;;;;;;;10.82;4.85;;;;;;;;;;4215807;28;20123;-85
2023/05/05 08:27:16;;;;;;;6.85;4.57;;;;;;;;;;4250745;27;20509;-85
2023/05/05 08:29:17;;;;;;;7.82;4.80;;;;;;;;;;4232814;28;20110;-85
2023/05/05 08:31:18;;;;;;;8.18;4.60;;;;;;;;;;4232430;28;20138;-85
2023/05/05 08:33:19;;;;;;;9.48;5.13;;;;;;;;;;4251375;27;20039;-85
2023/05/05 08:35:21;;;;;;;12.52;5.28;;;;;;;;;;4232450;28;20523;-84
2023/05/05 08:37:22;;;;;;;11.05;4.55;;;;;;;;;;4215703;28;20126;-85
2023/05/05 08:39:23;;;;;;;10.52;5.25;;;;;;;;;;4232268;28;20116;-84
2023/05/05 08:41:25;;;;;;;8.45;4.57;;;;;;;;;;4255944;27;20038;-85
2023/05/05 08:43:26;;;;;;;16.70;5.43;;;;;;;;;;4249497;27;20055;-86
2023/05/05 08:45:27;;;;;;;9.35;4.53;;;;;;;;;;4267666;27;20071;-85
2023/05/05 08:47:30;;;;;;;7.93;4.57;;;;;;;;;;4249783;27;20225;-86
2023/05/05 08:49:35;;;;;;;11.05;5.03;;;;;;;;;;4250093;27;20095;-85
2023/05/05 08:51:41;;;;;;;12.57;5.65;;;16.10;99.90;;;;;;4267307;27;20061;-86
2023/05/05 08:53:47;;;;;;;9.50;5.00;;;17.70;99.90;;;;;;4225451;28;20044;-85
2023/05/05 08:55:54;;;;;;;11.13;4.90;;;17.60;99.90;;;;;;4232213;28;20604;-85
2023/05/05 08:57:57;;;;;;;11.20;5.53;;;17.50;99.90;;;;;;4250807;27;20039;-86
2023/05/05 08:59:58;;;;;;;7.32;5.32;;;17.70;99.90;;;;;;4231872;28;20039;-85
2023/05/05 09:02:00;;;;;;;9.00;5.60;;;;;;;;;;4250142;27;20043;-86
2023/05/05 09:04:02;;;;;;;10.70;6.22;;;;;;;;;;4250345;27;20097;-85
2023/05/05 09:06:04;;;;;;;13.00;5.53;;;;;;;;;;4233998;28;20104;-85
2023/05/05 09:08:08;;;;;;;14.25;6.13;;;;;;;;;;4252029;27;20064;-86
2023/05/05 09:10:10;;;;;;;13.30;5.72;;;17.80;99.90;;;;;;4232783;28;20117;-87
2023/05/05 09:12:11;;;;;;;10.95;5.80;;;;;;;;;;4232416;28;20130;-86
2023/05/05 09:14:13;;;;;;;9.02;5.63;;;;;;;;;;4232740;28;20046;-86
2023/05/05 09:16:15;;;;;;;9.70;5.90;;;;;;;;;;4233053;28;20108;-86
2023/05/05 09:18:17;;;;;;;15.65;6.70;;;;;;;;;;4232174;28;20047;-86
2023/05/05 09:20:18;;;;;;;12.00;6.05;;;;;;;;;;4232475;28;20043;-86
2023/05/05 09:22:32;;;;;;;9.82;5.35;;;;;;;;;;4232230;28;20495;-86
2023/05/05 09:24:33;;;;;;;8.80;6.13;;;;;;;;;;4250230;27;20059;-86
2023/05/05 09:26:43;;;;;;;9.80;6.13;;;;;;;;;;4250523;27;20047;-86
2023/05/05 09:28:52;;;;;;;10.82;6.38;;;;;;;;;;4231560;28;20040;-85
2023/05/05 09:30:53;;;;;;;12.93;7.32;;;;;;;;;;4231664;28;20051;-86
2023/05/05 09:32:55;;;;;;;11.45;5.90;;;;;;;;;;4231803;28;20050;-86
2023/05/05 09:34:57;;;;;;;13.57;6.32;;;;;;;;;;4232009;28;20097;-87
2023/05/05 09:36:58;;;;;;;9.73;6.25;;;;;;;;;;4249411;27;20073;-86
2023/05/05 09:39:06;;;;;;;13.07;7.15;;;;;;;;;;4231519;28;20132;-86
2023/05/05 09:41:07;;;;;;;13.25;6.25;;;;;;;;;;4211728;28;20119;-85
2023/05/05 09:43:08;;;;;;;14.77;6.65;;;;;;;;;;4214556;28;20075;-86
2023/05/05 09:45:18;;;;;;;10.73;6.93;;;;;;;;;;4198466;28;20059;-86
2023/05/05 09:47:19;;;;;;;13.85;6.07;;;;;;;;;;4233066;28;20094;-86
2023/05/05 09:49:25;;;;;;;12.10;6.40;;;18.60;99.90;;;;;;4214900;28;20148;-86
2023/05/05 09:51:30;;;;;;;14.13;6.85;;;21.10;99.30;;;;;;4197998;28;20044;-85
2023/05/05 09:53:39;;;;;;;9.13;6.88;;;21.10;98.90;;;;;;4214545;28;20048;-86
2023/05/05 09:55:40;;;;;;;16.08;8.23;;;21.00;98.80;;;;;;4214939;28;20485;-86
2023/05/05 09:57:42;;;;;;;12.05;7.10;;;20.80;98.70;;;;;;4232525;28;20427;-86
2023/05/05 09:59:55;;;;;;;10.05;7.15;;;20.50;98.90;;;;;;4214921;28;20051;-86
2023/05/05 10:02:11;;;;;;;14.70;6.68;;;20.40;99.00;;;;;;4197584;28;20040;-86
2023/05/05 10:04:28;;;;;;;14.70;7.47;;;19.90;98.40;;;;;;4197092;28;20054;-86
2023/05/05 10:06:43;;;;;;;12.05;6.18;;;19.70;99.20;;;;;;4214454;28;20395;-86
2023/05/05 10:08:43;;;;;;;11.65;7.40;;;19.50;99.90;;;;;;4214694;28;20058;-86
2023/05/05 10:10:57;;;;;;;9.95;6.80;;;;;;;;;;4233042;28;20523;-85
2023/05/05 10:12:58;;;;;;;11.38;7.78;;;;;;;;;;4232540;28;20044;-86
2023/05/05 10:15:01;;;;;;;11.73;7.68;;;;;;;;;;4198502;28;20059;-86
2023/05/05 10:17:03;;;;;;;12.23;6.95;;;;;;;;;;4213532;28;20076;-86
2023/05/05 10:19:05;;;;;;;14.05;7.43;;;;;;;;;;4232162;28;20077;-86
2023/05/05 10:21:06;;;;;;;13.60;7.22;;;;;;;;;;4232716;28;20047;-86
2023/05/05 10:23:07;;;;;;;15.48;7.38;;;;;;;;;;4231662;28;20138;-87
2023/05/05 10:25:13;;;;;;;12.27;7.47;;;;;;;;;;4232644;28;20515;-86
2023/05/05 10:27:22;;;;;;;13.63;7.35;;;;;;;;;;4213711;28;20578;-86
2023/05/05 10:29:36;;;;;;;15.68;7.72;;;;;;;;;;4232324;28;20040;-85
2023/05/05 10:31:49;;;;;;;11.35;7.38;;;;;;;;;;4232421;28;20039;-86
2023/05/05 10:33:54;;;;;;;10.75;7.40;;;19.20;99.90;;;;;;4231573;28;20039;-86
2023/05/05 10:35:59;;;;;;;12.82;8.07;;;21.20;99.50;;;;;;4232138;28;20032;-86
2023/05/05 10:38:00;;;;;;;10.38;6.65;;;21.60;99.20;;;;;;4231784;28;20478;-85
2023/05/05 10:40:01;;;;;;;14.15;7.70;;;;;;;;;;4231734;28;20055;-86
2023/05/05 10:42:02;;;;;;;9.60;7.32;;;;;;;;;;4253507;27;20045;-86
2023/05/05 10:44:04;;;;;;;12.82;7.13;;;;;;;;;;4265346;27;20038;-86
2023/05/05 10:46:05;;;;;;;12.80;7.50;;;;;;;;;;4266158;27;20038;-86
2023/05/05 10:48:10;;;;;;;11.70;7.07;;;;;;;;;;4265895;27;20121;-86
2023/05/05 10:50:11;;;;;;;12.88;8.15;;;;;;;;;;4265529;27;20038;-86
2023/05/05 10:52:15;;;;;;;14.15;7.15;;;;;;;;;;4265594;27;20038;-86
2023/05/05 10:54:23;;;;;;;12.18;8.02;;;;;;;;;;4266292;27;20085;-86